createdAt,value
2022-09-11T00:01:40.333Z,64.60
2022-09-11T00:04:10.527Z,64.40
2022-09-11T00:06:38.837Z,64.60
2022-09-11T00:09:08.879Z,64.60
2022-09-11T00:11:41.570Z,65.10
2022-09-11T00:14:11.402Z,66.20
2022-09-11T00:16:43.086Z,65.70
2022-09-11T00:19:14.135Z,66.60
2022-09-11T00:21:43.086Z,67.00
2022-09-11T00:24:12.743Z,67.50
2022-09-11T00:26:42.662Z,68.40
2022-09-11T00:29:11.137Z,68.90
2022-09-11T00:31:39.460Z,69.50
2022-09-11T00:34:08.044Z,70.00
2022-09-11T00:36:37.643Z,70.10
2022-09-11T00:39:06.173Z,70.00
2022-09-11T00:41:38.228Z,70.80
2022-09-11T00:44:09.047Z,69.70
2022-09-11T00:46:41.899Z,69.30
2022-09-11T00:49:23.030Z,69.10
2022-09-11T00:51:55.256Z,68.90
2022-09-11T00:54:32.756Z,68.80
2022-09-11T00:57:05.055Z,68.80
2022-09-11T00:59:35.338Z,69.00
2022-09-11T01:02:03.871Z,68.90
2022-09-11T01:04:33.617Z,69.10
2022-09-11T01:07:03.940Z,69.20
2022-09-11T01:09:33.976Z,69.50
2022-09-11T01:12:09.306Z,69.60
2022-09-11T01:14:48.357Z,69.60
2022-09-11T01:17:27.866Z,70.60
2022-09-11T01:20:22.429Z,70.10
2022-09-11T01:23:29.468Z,70.10
2022-09-11T01:26:20.223Z,70.50
2022-09-11T01:28:57.729Z,70.80
2022-09-11T01:31:31.603Z,71.20
2022-09-11T01:34:05.949Z,71.60
2022-09-11T01:36:39.849Z,72.50
2022-09-11T01:39:08.345Z,72.90
2022-09-11T01:41:44.657Z,72.30
2022-09-11T01:44:17.347Z,72.10
2022-09-11T01:46:50.018Z,72.10
2022-09-11T01:49:22.865Z,72.20
2022-09-11T01:51:55.104Z,72.10
2022-09-11T01:54:29.714Z,72.00
2022-09-11T01:57:04.795Z,72.10
2022-09-11T01:59:41.134Z,72.40
2022-09-11T02:02:13.464Z,73.40
2022-09-11T02:04:45.975Z,73.20
2022-09-11T02:07:18.237Z,73.50
2022-09-11T02:09:56.985Z,73.70
2022-09-11T02:12:30.144Z,75.60
2022-09-11T02:15:01.297Z,75.60
2022-09-11T02:17:42.941Z,75.30
2022-09-11T02:20:11.945Z,75.30
2022-09-11T02:22:40.486Z,75.70
2022-09-11T02:25:09.484Z,76.40
2022-09-11T02:27:37.744Z,77.00
2022-09-11T02:30:08.487Z,77.40
2022-09-11T02:32:39.079Z,78.70
2022-09-11T02:35:08.356Z,78.60
2022-09-11T02:37:49.760Z,79.10
2022-09-11T02:40:39.071Z,79.60
2022-09-11T02:43:34.486Z,80.70
2022-09-11T02:46:41.631Z,80.60
2022-09-11T02:49:23.634Z,80.30
2022-09-11T02:51:59.347Z,80.40
2022-09-11T02:54:38.962Z,80.50
2022-09-11T02:57:12.736Z,80.20
2022-09-11T02:59:46.074Z,80.10
2022-09-11T03:02:18.650Z,81.30
2022-09-11T03:04:49.556Z,81.40
2022-09-11T03:07:19.878Z,81.70
2022-09-11T03:09:48.608Z,81.40
2022-09-11T03:12:21.496Z,81.00
2022-09-11T03:14:52.514Z,80.80
2022-09-11T03:17:23.976Z,81.10
2022-09-11T03:19:52.327Z,81.30
2022-09-11T03:22:20.655Z,81.10
2022-09-11T03:24:49.255Z,80.80
2022-09-11T03:27:18.385Z,80.70
2022-09-11T03:29:46.667Z,80.80
2022-09-11T03:32:16.277Z,80.90
2022-09-11T03:34:47.497Z,81.20
2022-09-11T03:37:16.725Z,81.40
2022-09-11T03:39:45.035Z,81.80
2022-09-11T03:42:13.421Z,81.80
2022-09-11T03:44:41.935Z,81.80
2022-09-11T03:47:13.136Z,81.70
2022-09-11T03:49:41.497Z,81.50
2022-09-11T03:52:11.655Z,81.80
2022-09-11T03:54:40.849Z,81.90
2022-09-11T03:57:09.818Z,82.30
2022-09-11T03:59:40.263Z,82.70
2022-09-11T04:02:08.676Z,83.00
2022-09-11T04:04:37.934Z,83.20
2022-09-11T04:07:06.758Z,83.30
2022-09-11T04:09:36.486Z,83.30
2022-09-11T04:12:04.935Z,83.60
2022-09-11T04:14:33.205Z,84.30
2022-09-11T04:17:01.487Z,84.50
2022-09-11T04:19:30.339Z,84.50
2022-09-11T04:22:00.216Z,84.40
2022-09-11T04:24:28.783Z,85.00
2022-09-11T04:27:01.228Z,85.20
2022-09-11T04:29:32.553Z,85.80
2022-09-11T04:32:01.424Z,86.90
2022-09-11T04:34:33.017Z,87.40
2022-09-11T04:37:01.689Z,88.40
2022-09-11T04:39:31.910Z,90.60
2022-09-11T04:42:02.384Z,91.70
2022-09-11T04:44:32.648Z,93.20
2022-09-11T04:47:01.483Z,93.40
2022-09-11T04:49:29.876Z,93.40
2022-09-11T04:52:05.913Z,93.20
2022-09-11T04:54:35.617Z,92.80
2022-09-11T04:57:10.235Z,92.90
2022-09-11T04:59:39.931Z,92.00
2022-09-11T05:02:13.031Z,91.40
2022-09-11T05:04:44.747Z,90.10
2022-09-11T05:07:14.886Z,87.60
2022-09-11T05:09:47.514Z,83.20
2022-09-11T05:12:18.936Z,80.50
2022-09-11T05:14:47.854Z,78.10
2022-09-11T05:17:16.184Z,75.10
2022-09-11T05:19:45.333Z,72.30
2022-09-11T05:22:14.056Z,71.00
2022-09-11T05:24:47.333Z,69.80
2022-09-11T05:27:15.614Z,66.70
2022-09-11T05:29:45.304Z,65.10
2022-09-11T05:32:15.883Z,64.40
2022-09-11T05:34:45.537Z,63.60
2022-09-11T05:37:16.674Z,63.50
2022-09-11T05:39:47.033Z,63.10
2022-09-11T05:42:35.616Z,62.90
2022-09-11T05:45:05.954Z,60.80
2022-09-11T05:47:34.535Z,60.20
2022-09-11T05:50:03.136Z,59.30
2022-09-11T05:52:32.163Z,58.40
2022-09-11T05:55:02.798Z,56.90
2022-09-11T05:57:32.506Z,55.30
2022-09-11T06:00:00.843Z,53.80
2022-09-11T06:02:32.193Z,53.20
2022-09-11T06:05:00.543Z,52.10
2022-09-11T06:07:29.367Z,51.30
2022-09-11T06:10:02.338Z,50.90
2022-09-11T06:12:45.915Z,48.70
2022-09-11T06:15:36.272Z,47.20
2022-09-11T06:18:07.306Z,45.70
2022-09-11T06:20:35.835Z,45.20
2022-09-11T06:23:09.046Z,45.10
2022-09-11T06:25:39.180Z,44.50
2022-09-11T06:28:07.864Z,43.90
2022-09-11T06:30:36.581Z,43.80
2022-09-11T06:33:06.419Z,43.90
2022-09-11T06:35:35.360Z,43.20
2022-09-11T06:38:03.891Z,43.40
2022-09-11T06:40:32.254Z,42.70
2022-09-11T06:43:00.902Z,41.40
2022-09-11T06:45:31.259Z,40.70
2022-09-11T06:47:59.726Z,40.00
2022-09-11T06:50:36.391Z,39.40
2022-09-11T06:53:07.809Z,38.50
2022-09-11T06:55:40.075Z,37.30
2022-09-11T06:58:12.179Z,36.90
2022-09-11T07:00:40.770Z,37.30
2022-09-11T07:03:11.963Z,37.50
2022-09-11T07:05:47.426Z,37.40
2022-09-11T07:08:16.266Z,37.30
2022-09-11T07:10:46.196Z,37.10
2022-09-11T07:13:15.177Z,36.20
2022-09-11T07:15:43.587Z,35.80
2022-09-11T07:18:12.924Z,35.60
2022-09-11T07:20:43.067Z,34.90
2022-09-11T07:23:12.176Z,34.10
2022-09-11T07:25:40.776Z,33.70
2022-09-11T07:28:12.338Z,33.40
2022-09-11T07:30:41.623Z,32.40
2022-09-11T07:33:10.055Z,32.10
2022-09-11T07:35:39.141Z,31.20
2022-09-11T07:38:08.785Z,30.10
2022-09-11T07:40:39.999Z,30.30
2022-09-11T07:43:08.408Z,31.00
2022-09-11T07:45:37.870Z,32.40
2022-09-11T07:48:08.016Z,32.40
2022-09-11T07:50:36.447Z,32.80
2022-09-11T07:53:06.442Z,34.00
2022-09-11T07:55:37.067Z,34.30
2022-09-11T07:58:05.404Z,34.90
2022-09-11T08:00:36.994Z,35.40
2022-09-11T08:03:15.568Z,36.00
2022-09-11T08:05:44.256Z,36.20
2022-09-11T08:08:14.126Z,36.30
2022-09-11T08:10:43.827Z,37.30
2022-09-11T08:13:12.663Z,38.10
2022-09-11T08:15:48.518Z,38.40
2022-09-11T08:18:17.096Z,38.50
2022-09-11T08:20:45.580Z,38.40
2022-09-11T08:23:15.620Z,38.40
2022-09-11T08:25:45.970Z,38.50
2022-09-11T08:28:15.556Z,38.70
2022-09-11T08:30:44.576Z,39.10
2022-09-11T08:33:14.367Z,39.60
2022-09-11T08:35:43.139Z,40.00
2022-09-11T08:38:11.365Z,40.20
2022-09-11T08:40:40.059Z,40.50
2022-09-11T08:43:19.359Z,40.60
2022-09-11T08:45:48.970Z,40.60
2022-09-11T08:48:17.305Z,40.70
2022-09-11T08:50:45.903Z,41.80
2022-09-11T08:53:18.993Z,41.90
2022-09-11T08:55:51.968Z,41.40
2022-09-11T08:58:34.688Z,40.90
2022-09-11T09:01:12.453Z,41.00
2022-09-11T09:04:00.071Z,40.70
2022-09-11T09:06:47.187Z,40.20
2022-09-11T09:09:24.129Z,39.90
2022-09-11T09:12:00.593Z,39.80
2022-09-11T09:14:49.926Z,40.10
2022-09-11T09:17:23.367Z,40.20
2022-09-11T09:20:01.606Z,40.50
2022-09-11T09:22:44.712Z,40.70
2022-09-11T09:25:15.865Z,41.10
2022-09-11T09:27:48.126Z,41.80
2022-09-11T09:30:22.022Z,42.00
2022-09-11T09:32:55.349Z,42.10
2022-09-11T09:35:31.686Z,42.20
2022-09-11T09:38:00.893Z,42.00
2022-09-11T09:40:33.515Z,41.70
2022-09-11T09:43:28.945Z,41.60
2022-09-11T09:46:11.577Z,42.60
2022-09-11T09:48:41.176Z,42.40
2022-09-11T09:51:13.993Z,43.00
2022-09-11T09:53:47.324Z,43.10
2022-09-11T09:56:19.037Z,43.10
2022-09-11T09:58:56.503Z,43.40
2022-09-11T10:01:46.055Z,43.20
2022-09-11T10:04:18.177Z,42.40
2022-09-11T10:06:47.784Z,41.40
2022-09-11T10:09:25.028Z,40.20
2022-09-11T10:11:57.786Z,39.50
2022-09-11T10:14:49.777Z,38.20
2022-09-11T10:17:24.016Z,36.70
2022-09-11T10:19:55.835Z,35.50
2022-09-11T10:22:33.585Z,35.90
2022-09-11T10:25:05.005Z,35.50
2022-09-11T10:27:39.789Z,34.60
2022-09-11T10:30:26.547Z,34.00
2022-09-11T10:33:00.111Z,32.20
2022-09-11T10:35:33.925Z,33.00
2022-09-11T10:38:17.972Z,32.40
2022-09-11T10:41:02.524Z,32.00
2022-09-11T10:43:35.866Z,32.00
2022-09-11T10:46:06.857Z,32.30
2022-09-11T10:48:37.224Z,33.20
2022-09-11T10:51:07.481Z,33.40
2022-09-11T10:53:54.856Z,33.70
2022-09-11T10:56:24.394Z,34.10
2022-09-11T10:58:56.179Z,35.50
2022-09-11T11:01:26.248Z,36.00
2022-09-11T11:03:57.345Z,35.70
2022-09-11T11:06:45.942Z,36.10
2022-09-11T11:09:39.648Z,36.30
2022-09-11T11:12:33.167Z,36.60
2022-09-11T11:15:21.816Z,36.60
2022-09-11T11:18:01.306Z,36.50
2022-09-11T11:20:38.364Z,36.40
2022-09-11T11:23:37.665Z,36.30
2022-09-11T11:26:20.616Z,35.60
2022-09-11T11:29:03.176Z,35.20
2022-09-11T11:31:44.427Z,34.40
2022-09-11T11:34:25.699Z,33.90
2022-09-11T11:37:01.953Z,34.00
2022-09-11T11:39:36.666Z,34.10
2022-09-11T11:42:12.134Z,34.50
2022-09-11T11:44:45.245Z,34.50
2022-09-11T11:47:17.898Z,34.70
2022-09-11T11:49:56.081Z,34.60
2022-09-11T11:52:51.141Z,34.50
2022-09-11T11:55:22.306Z,33.50
2022-09-11T11:58:00.514Z,33.60
2022-09-11T12:00:31.677Z,32.90
2022-09-11T12:03:05.318Z,32.40
2022-09-11T12:05:35.129Z,31.80
2022-09-11T12:08:05.090Z,31.50
2022-09-11T12:10:37.987Z,31.30
2022-09-11T12:13:12.483Z,31.40
2022-09-11T12:15:40.946Z,31.10
2022-09-11T12:18:25.529Z,31.10
2022-09-11T12:21:14.596Z,30.30
2022-09-11T12:24:18.787Z,29.80
2022-09-11T12:26:47.395Z,29.40
2022-09-11T12:29:51.863Z,29.70
2022-09-11T12:32:43.033Z,29.00
2022-09-11T12:35:20.167Z,28.80
2022-09-11T12:37:55.787Z,28.90
2022-09-11T12:40:35.763Z,29.70
2022-09-11T12:43:31.567Z,30.80
2022-09-11T12:46:00.231Z,32.90
2022-09-11T12:48:38.742Z,33.60
2022-09-11T12:51:16.566Z,34.60
2022-09-11T12:53:48.352Z,35.80
2022-09-11T12:56:21.846Z,37.40
2022-09-11T12:58:56.085Z,38.40
2022-09-11T13:01:27.984Z,39.70
2022-09-11T13:04:02.101Z,40.60
2022-09-11T13:06:41.965Z,41.50
2022-09-11T13:09:21.975Z,42.60
2022-09-11T13:11:53.523Z,44.30
2022-09-11T13:14:52.027Z,46.40
2022-09-11T13:17:30.605Z,49.10
2022-09-11T13:20:23.226Z,49.60
2022-09-11T13:22:57.631Z,50.80
2022-09-11T13:25:28.197Z,50.90
2022-09-11T13:28:02.341Z,50.80
2022-09-11T13:30:30.984Z,50.20
2022-09-11T13:33:07.669Z,48.80
2022-09-11T13:35:40.341Z,46.90
2022-09-11T13:38:30.636Z,45.80
2022-09-11T13:41:04.007Z,43.30
2022-09-11T13:43:36.845Z,43.20
2022-09-11T13:46:26.895Z,41.80
2022-09-11T13:49:00.337Z,38.80
2022-09-11T13:51:31.289Z,38.00
2022-09-11T13:54:10.184Z,37.00
2022-09-11T13:56:47.420Z,35.30
2022-09-11T13:59:41.626Z,34.80
2022-09-11T14:02:34.809Z,34.80
2022-09-11T14:05:11.585Z,35.20
2022-09-11T14:07:47.717Z,35.80
2022-09-11T14:10:24.436Z,37.30
2022-09-11T14:13:03.865Z,39.20
2022-09-11T14:15:40.410Z,40.40
2022-09-11T14:18:20.956Z,40.50
2022-09-11T14:20:49.325Z,40.80
2022-09-11T14:23:24.334Z,41.00
2022-09-11T14:26:07.974Z,41.60
2022-09-11T14:28:45.879Z,42.20
2022-09-11T14:31:29.479Z,42.20
2022-09-11T14:34:19.661Z,42.20
2022-09-11T14:36:52.851Z,41.90
2022-09-11T14:39:34.534Z,41.30
2022-09-11T14:42:03.385Z,41.00
2022-09-11T14:44:32.868Z,40.90
2022-09-11T14:47:03.087Z,41.10
2022-09-11T14:49:31.326Z,41.20
2022-09-11T14:52:01.134Z,41.50
2022-09-11T14:54:32.064Z,42.10
2022-09-11T14:57:01.016Z,42.80
2022-09-11T14:59:30.188Z,43.20
2022-09-11T15:01:59.689Z,43.70
2022-09-11T15:04:30.084Z,44.20
2022-09-11T15:06:59.994Z,44.60
2022-09-11T15:09:28.971Z,44.90
2022-09-11T15:11:57.317Z,45.40
2022-09-11T15:14:45.078Z,45.70
2022-09-11T15:17:17.895Z,46.20
2022-09-11T15:19:49.817Z,46.90
2022-09-11T15:22:19.089Z,47.10
2022-09-11T15:24:49.940Z,47.70
2022-09-11T15:27:19.191Z,47.60
2022-09-11T15:29:47.476Z,47.90
2022-09-11T15:32:15.743Z,48.10
2022-09-11T15:34:45.387Z,48.20
2022-09-11T15:37:16.993Z,48.40
2022-09-11T15:39:45.563Z,48.50
2022-09-11T15:42:14.080Z,48.80
2022-09-11T15:44:42.366Z,49.00
2022-09-11T15:47:11.507Z,49.80
2022-09-11T15:49:42.057Z,49.50
2022-09-11T15:52:11.181Z,49.60
2022-09-11T15:54:41.174Z,49.70
2022-09-11T15:57:09.711Z,49.80
2022-09-11T15:59:38.356Z,49.90
2022-09-11T16:02:06.834Z,50.00
2022-09-11T16:04:35.181Z,50.10
2022-09-11T16:07:03.715Z,50.40
2022-09-11T16:09:33.418Z,50.50
2022-09-11T16:12:03.616Z,50.60
2022-09-11T16:14:34.912Z,50.70
2022-09-11T16:17:05.548Z,50.80
2022-09-11T16:19:34.424Z,51.10
2022-09-11T16:22:05.107Z,51.20
2022-09-11T16:24:37.544Z,51.30
2022-09-11T16:27:10.280Z,51.40
2022-09-11T16:32:29.451Z,51.20
2022-09-11T16:34:59.762Z,51.40
2022-09-11T16:37:32.860Z,51.40
2022-09-11T16:40:02.925Z,51.60
2022-09-11T16:42:32.768Z,51.80
2022-09-11T16:45:01.055Z,52.00
2022-09-11T16:47:30.438Z,52.20
2022-09-11T16:50:07.356Z,52.30
2022-09-11T16:52:36.579Z,52.30
2022-09-11T16:55:06.379Z,52.40
2022-09-11T16:57:36.238Z,52.60
2022-09-11T17:00:06.055Z,52.60
2022-09-11T17:02:34.380Z,52.70
2022-09-11T17:05:03.626Z,52.90
2022-09-11T17:07:32.014Z,53.00
2022-09-11T17:10:00.525Z,53.10
2022-09-11T17:12:29.002Z,53.20
2022-09-11T17:14:58.712Z,53.30
2022-09-11T17:17:27.003Z,53.50
2022-09-11T17:19:55.783Z,53.60
2022-09-11T17:22:24.093Z,53.70
2022-09-11T17:24:52.454Z,53.90
2022-09-11T17:27:20.704Z,54.20
2022-09-11T17:29:49.141Z,54.30
2022-09-11T17:32:29.300Z,54.40
2022-09-11T17:34:58.590Z,54.50
2022-09-11T17:37:27.553Z,54.70
2022-09-11T17:39:56.198Z,54.70
2022-09-11T17:42:24.914Z,55.10
2022-09-11T17:44:53.656Z,55.30
2022-09-11T17:47:23.891Z,56.10
2022-09-11T17:49:52.224Z,55.80
2022-09-11T17:52:20.900Z,56.20
2022-09-11T17:54:49.492Z,56.60
2022-09-11T17:57:17.826Z,56.80
2022-09-11T17:59:48.974Z,57.00
2022-09-11T18:02:18.275Z,57.30
2022-09-11T18:04:48.588Z,57.60
2022-09-11T18:07:17.183Z,57.80
2022-09-11T18:09:46.074Z,58.00
2022-09-11T18:12:14.629Z,58.20
2022-09-11T18:14:43.957Z,58.50
2022-09-11T18:17:12.394Z,58.80
2022-09-11T18:19:40.704Z,59.40
2022-09-11T18:22:10.276Z,59.50
2022-09-11T18:24:39.924Z,59.80
2022-09-11T18:27:09.943Z,59.80
2022-09-11T18:29:40.072Z,60.00
2022-09-11T18:32:10.114Z,61.10
2022-09-11T18:34:38.865Z,61.50
2022-09-11T18:37:07.856Z,62.00
2022-09-11T18:39:38.442Z,62.50
2022-09-11T18:42:07.609Z,62.80
2022-09-11T18:44:36.278Z,63.70
2022-09-11T18:47:04.586Z,64.80
2022-09-11T18:49:34.827Z,64.90
2022-09-11T18:52:03.577Z,65.40
2022-09-11T18:54:32.155Z,66.10
2022-09-11T18:57:03.578Z,66.30
2022-09-11T18:59:31.937Z,66.80
2022-09-11T19:02:01.243Z,67.20
2022-09-11T19:04:29.807Z,67.40
2022-09-11T19:07:00.202Z,67.60
2022-09-11T19:09:29.417Z,68.10
2022-09-11T19:12:00.278Z,68.70
2022-09-11T19:14:30.623Z,69.20
2022-09-11T19:17:00.356Z,69.30
2022-09-11T19:19:29.136Z,69.60
2022-09-11T19:21:57.459Z,70.00
2022-09-11T19:24:28.283Z,71.10
2022-09-11T19:26:56.708Z,71.50
2022-09-11T19:29:24.998Z,71.70
2022-09-11T19:31:54.748Z,72.00
2022-09-11T19:34:24.558Z,72.50
2022-09-11T19:36:53.483Z,73.40
2022-09-11T19:39:22.074Z,74.10
2022-09-11T19:41:50.408Z,74.50
2022-09-11T19:44:20.034Z,75.10
2022-09-11T19:46:53.420Z,75.70
2022-09-11T19:49:23.528Z,76.60
2022-09-11T19:51:53.304Z,77.20
2022-09-11T19:54:22.479Z,77.80
2022-09-11T19:56:51.177Z,78.50
2022-09-11T19:59:20.426Z,79.30
2022-09-11T20:01:49.081Z,80.10
2022-09-11T20:04:19.105Z,80.70
2022-09-11T20:09:32.597Z,82.00
2022-09-11T20:12:01.816Z,82.60
2022-09-11T20:14:31.181Z,83.00
2022-09-11T20:17:01.141Z,83.70
2022-09-11T20:19:29.755Z,84.20
2022-09-11T20:22:00.646Z,84.70
2022-09-11T20:24:29.363Z,85.40
2022-09-11T20:26:57.698Z,85.90
2022-09-11T20:29:26.088Z,86.50
2022-09-11T20:31:55.904Z,86.80
2022-09-11T20:34:27.956Z,87.40
2022-09-11T20:37:00.803Z,88.20
2022-09-11T20:39:30.616Z,88.90
2022-09-11T20:42:00.631Z,90.00
2022-09-11T20:44:29.030Z,90.30
2022-09-11T20:46:57.575Z,90.70
2022-09-11T20:49:26.113Z,90.90
2022-09-11T20:51:54.627Z,91.30
2022-09-11T20:54:22.997Z,91.60
2022-09-11T20:56:52.548Z,91.90
2022-09-11T20:59:20.943Z,92.40
2022-09-11T21:01:49.479Z,92.70
2022-09-11T21:04:17.795Z,93.00
2022-09-11T21:06:47.585Z,93.20
2022-09-11T21:09:16.109Z,93.50
2022-09-11T21:11:44.971Z,93.70
2022-09-11T21:14:17.197Z,93.80
2022-09-11T21:16:45.572Z,94.00
2022-09-11T21:19:13.797Z,94.20
2022-09-11T21:21:42.132Z,94.30
2022-09-11T21:24:14.604Z,94.40
2022-09-11T21:26:43.076Z,94.60
2022-09-11T21:29:15.107Z,94.70
2022-09-11T21:31:43.427Z,94.80
2022-09-11T21:34:12.066Z,94.70
2022-09-11T21:36:40.345Z,94.80
2022-09-11T21:39:08.937Z,94.70
2022-09-11T21:41:37.266Z,94.80
2022-09-11T21:44:05.846Z,94.70
2022-09-11T21:46:35.671Z,94.60
2022-09-11T21:49:04.026Z,94.50
2022-09-11T21:51:32.344Z,94.40
2022-09-11T21:54:01.974Z,94.40
2022-09-11T21:56:33.114Z,94.40
2022-09-11T21:59:02.287Z,94.40
2022-09-11T22:01:32.193Z,94.50
2022-09-11T22:04:02.456Z,94.50
2022-09-11T22:06:32.083Z,94.70
2022-09-11T22:09:00.889Z,95.10
2022-09-11T22:11:29.214Z,95.00
2022-09-11T22:13:57.530Z,95.20
2022-09-11T22:16:26.144Z,95.50
2022-09-11T22:18:55.576Z,95.90
2022-09-11T22:21:25.367Z,96.20
2022-09-11T22:23:55.148Z,96.50
2022-09-11T22:26:24.545Z,96.60
2022-09-11T22:28:53.411Z,96.60
2022-09-11T22:31:24.999Z,96.60
2022-09-11T22:33:53.881Z,96.50
2022-09-11T22:36:25.222Z,96.40
2022-09-11T22:38:54.000Z,96.50
2022-09-11T22:41:23.075Z,96.50
2022-09-11T22:43:51.494Z,96.50
2022-09-11T22:46:21.277Z,96.60
2022-09-11T22:48:49.604Z,96.90
2022-09-11T22:51:18.137Z,97.20
2022-09-11T22:53:47.682Z,97.50
2022-09-11T22:56:16.800Z,97.70
2022-09-11T22:58:45.267Z,97.80
2022-09-11T23:01:21.086Z,97.90
2022-09-11T23:03:51.044Z,98.00
2022-09-11T23:06:37.784Z,97.90
2022-09-11T23:09:08.836Z,97.90
2022-09-11T23:11:37.218Z,97.80
2022-09-11T23:14:06.762Z,97.80
2022-09-11T23:16:37.814Z,97.80
2022-09-11T23:19:07.475Z,97.90
2022-09-11T23:21:36.874Z,98.00
2022-09-11T23:24:07.715Z,98.20
2022-09-11T23:26:36.093Z,98.50
2022-09-11T23:29:04.434Z,98.70
2022-09-11T23:31:34.289Z,98.90
2022-09-11T23:34:04.574Z,99.10
2022-09-11T23:36:33.159Z,99.30
2022-09-11T23:39:02.195Z,99.30
2022-09-11T23:41:33.064Z,99.40
2022-09-11T23:44:01.601Z,99.50
2022-09-11T23:46:29.976Z,99.40
2022-09-11T23:48:58.221Z,99.50
2022-09-11T23:51:26.975Z,99.50
2022-09-11T23:53:55.379Z,99.50
2022-09-11T23:56:23.706Z,99.50
2022-09-11T23:58:53.525Z,99.50
